createdAt,value
2023-01-22T00:00:06.743Z,2.60
2023-01-22T00:02:38.256Z,2.20
2023-01-22T00:05:05.528Z,2.30
2023-01-22T00:07:32.108Z,2.77
2023-01-22T00:09:59.949Z,2.50
2023-01-22T00:12:27.340Z,2.70
2023-01-22T00:14:54.043Z,2.43
2023-01-22T00:17:20.583Z,2.87
2023-01-22T00:19:47.158Z,2.53
2023-01-22T00:22:13.704Z,2.77
2023-01-22T00:24:40.258Z,2.40
2023-01-22T00:27:07.055Z,2.67
2023-01-22T00:29:33.652Z,2.40
2023-01-22T00:32:00.339Z,2.53
2023-01-22T00:34:26.938Z,2.57
2023-01-22T00:36:55.230Z,2.80
2023-01-22T00:39:22.706Z,2.43
2023-01-22T00:41:49.799Z,2.40
2023-01-22T00:44:16.590Z,2.57
2023-01-22T00:46:43.310Z,2.80
2023-01-22T00:49:10.107Z,2.30
2023-01-22T00:51:39.196Z,2.60
2023-01-22T00:54:05.854Z,2.40
2023-01-22T00:56:32.469Z,2.47
2023-01-22T00:58:59.191Z,2.50
2023-01-22T01:01:25.739Z,2.60
2023-01-22T01:03:52.330Z,2.67
2023-01-22T01:06:21.291Z,2.30
2023-01-22T01:08:48.449Z,2.50
2023-01-22T01:11:18.353Z,2.50
2023-01-22T01:13:45.323Z,2.73
2023-01-22T01:16:14.920Z,3.03
2023-01-22T01:18:41.937Z,2.77
2023-01-22T01:21:09.438Z,2.90
2023-01-22T01:23:36.698Z,2.53
2023-01-22T01:26:12.759Z,2.43
2023-01-22T01:28:40.729Z,2.60
2023-01-22T01:31:09.961Z,2.60
2023-01-22T01:33:37.098Z,2.70
2023-01-22T01:36:16.612Z,2.90
2023-01-22T01:38:57.961Z,2.80
2023-01-22T01:41:26.928Z,3.00
2023-01-22T01:44:11.611Z,2.40
2023-01-22T01:46:46.499Z,2.90
2023-01-22T01:49:33.659Z,2.73
2023-01-22T01:52:03.886Z,2.77
2023-01-22T01:54:31.215Z,2.47
2023-01-22T01:57:05.802Z,2.50
2023-01-22T01:59:33.632Z,2.23
2023-01-22T02:02:02.398Z,2.40
2023-01-22T02:04:29.595Z,2.40
2023-01-22T02:06:56.166Z,2.67
2023-01-22T02:09:23.118Z,2.23
2023-01-22T02:11:51.404Z,2.10
2023-01-22T02:14:25.542Z,2.10
2023-01-22T02:17:11.515Z,2.17
2023-01-22T02:19:39.273Z,2.50
2023-01-22T02:22:42.397Z,3.17
2023-01-22T02:25:09.251Z,3.97
2023-01-22T02:27:35.955Z,2.70
2023-01-22T02:30:02.705Z,2.50
2023-01-22T02:32:29.275Z,1.80
2023-01-22T02:34:55.958Z,2.20
2023-01-22T02:37:22.678Z,2.10
2023-01-22T02:39:49.319Z,2.20
2023-01-22T02:42:15.909Z,2.33
2023-01-22T02:44:42.500Z,2.40
2023-01-22T02:47:09.287Z,1.93
2023-01-22T02:49:35.849Z,2.07
2023-01-22T02:52:02.746Z,2.30
2023-01-22T02:54:29.406Z,2.10
2023-01-22T02:56:56.684Z,2.63
2023-01-22T02:59:23.328Z,2.10
2023-01-22T03:01:50.232Z,2.33
2023-01-22T03:04:16.801Z,2.00
2023-01-22T03:06:45.826Z,2.10
2023-01-22T03:09:14.797Z,2.00
2023-01-22T03:11:43.006Z,2.07
2023-01-22T03:14:28.495Z,2.20
2023-01-22T03:17:14.057Z,2.00
2023-01-22T03:19:59.506Z,2.30
2023-01-22T03:22:27.170Z,2.43
2023-01-22T03:24:53.835Z,2.20
2023-01-22T03:27:22.625Z,2.20
2023-01-22T03:29:50.153Z,2.07
2023-01-22T03:32:16.869Z,2.30
2023-01-22T03:34:43.677Z,2.23
2023-01-22T03:37:14.417Z,2.37
2023-01-22T03:39:41.070Z,2.20
2023-01-22T03:42:08.130Z,2.10
2023-01-22T03:44:35.058Z,2.00
2023-01-22T03:47:01.993Z,2.30
2023-01-22T03:49:28.570Z,2.20
2023-01-22T03:51:57.227Z,1.90
2023-01-22T03:54:23.926Z,2.20
2023-01-22T03:56:50.509Z,2.17
2023-01-22T03:59:17.134Z,2.17
2023-01-22T04:01:43.767Z,2.30
2023-01-22T04:04:10.412Z,2.10
2023-01-22T04:06:37.021Z,2.03
2023-01-22T04:09:03.665Z,2.40
2023-01-22T04:11:30.222Z,2.23
2023-01-22T04:13:56.825Z,2.27
2023-01-22T04:16:23.520Z,2.33
2023-01-22T04:18:50.552Z,2.40
2023-01-22T04:21:17.158Z,2.23
2023-01-22T04:23:43.739Z,2.40
2023-01-22T04:26:10.363Z,2.50
2023-01-22T04:28:36.921Z,2.70
2023-01-22T04:31:04.697Z,2.50
2023-01-22T04:33:31.719Z,2.60
2023-01-22T04:35:58.349Z,2.13
2023-01-22T04:38:24.982Z,2.23
2023-01-22T04:40:51.525Z,2.50
2023-01-22T04:43:18.225Z,2.30
2023-01-22T04:45:44.883Z,2.77
2023-01-22T04:48:12.570Z,2.40
2023-01-22T04:50:39.133Z,2.53
2023-01-22T04:53:05.726Z,2.60
2023-01-22T04:55:32.634Z,2.70
2023-01-22T04:58:00.702Z,2.40
2023-01-22T05:00:28.367Z,2.50
2023-01-22T05:03:02.327Z,2.90
2023-01-22T05:05:29.949Z,2.87
2023-01-22T05:07:56.798Z,2.57
2023-01-22T05:10:23.848Z,2.60
2023-01-22T05:12:50.798Z,2.50
2023-01-22T05:15:28.718Z,2.90
2023-01-22T05:17:55.655Z,2.67
2023-01-22T05:20:22.284Z,2.80
2023-01-22T05:22:49.123Z,2.97
2023-01-22T05:25:15.886Z,2.60
2023-01-22T05:27:42.734Z,2.60
2023-01-22T05:30:10.125Z,2.63
2023-01-22T05:32:37.064Z,3.20
2023-01-22T05:35:04.708Z,3.03
2023-01-22T05:37:32.231Z,3.00
2023-01-22T05:39:58.827Z,3.00
2023-01-22T05:42:25.500Z,3.30
2023-01-22T05:44:52.074Z,3.00
2023-01-22T05:47:18.816Z,3.10
2023-01-22T05:49:45.367Z,3.00
2023-01-22T05:52:11.940Z,3.53
2023-01-22T05:54:39.662Z,2.77
2023-01-22T05:57:06.863Z,3.30
2023-01-22T05:59:33.554Z,2.97
2023-01-22T06:02:00.372Z,3.20
2023-01-22T06:04:27.007Z,3.07
2023-01-22T06:06:53.608Z,3.27
2023-01-22T06:09:20.194Z,3.03
2023-01-22T06:11:46.780Z,3.13
2023-01-22T06:14:13.466Z,3.20
2023-01-22T06:16:40.068Z,3.30
2023-01-22T06:19:06.870Z,3.50
2023-01-22T06:21:33.449Z,3.57
2023-01-22T06:24:00.025Z,3.30
2023-01-22T06:26:26.624Z,3.60
2023-01-22T06:28:55.104Z,3.57
2023-01-22T06:31:22.043Z,3.33
2023-01-22T06:33:48.907Z,3.47
2023-01-22T06:36:15.771Z,3.57
2023-01-22T06:38:42.401Z,3.70
2023-01-22T06:41:10.046Z,3.83
2023-01-22T06:43:37.656Z,3.20
2023-01-22T06:46:04.845Z,3.53
2023-01-22T06:48:31.525Z,3.30
2023-01-22T06:50:59.583Z,3.60
2023-01-22T06:53:26.680Z,3.47
2023-01-22T06:55:53.375Z,3.70
2023-01-22T06:58:19.969Z,3.50
2023-01-22T07:00:46.525Z,4.10
2023-01-22T07:03:13.653Z,3.97
2023-01-22T07:05:40.222Z,3.90
2023-01-22T07:08:06.869Z,3.90
2023-01-22T07:10:33.483Z,4.67
2023-01-22T07:13:00.138Z,4.30
2023-01-22T07:15:26.919Z,4.10
2023-01-22T07:17:54.296Z,4.23
2023-01-22T07:20:23.201Z,4.17
2023-01-22T07:22:50.470Z,4.37
2023-01-22T07:25:17.635Z,4.30
2023-01-22T07:27:44.347Z,4.30
2023-01-22T07:30:11.420Z,3.83
2023-01-22T07:32:37.984Z,4.30
2023-01-22T07:35:04.909Z,4.00
2023-01-22T07:37:31.466Z,4.20
2023-01-22T07:39:58.078Z,3.90
2023-01-22T07:42:24.679Z,4.00
2023-01-22T07:44:51.250Z,4.03
2023-01-22T07:47:17.813Z,3.90
2023-01-22T07:49:44.388Z,3.97
2023-01-22T07:52:10.970Z,4.10
2023-01-22T07:54:37.528Z,4.00
2023-01-22T07:57:04.554Z,4.63
2023-01-22T07:59:31.427Z,3.80
2023-01-22T08:01:58.106Z,4.03
2023-01-22T08:04:25.025Z,4.03
2023-01-22T08:06:52.131Z,4.10
2023-01-22T08:09:24.737Z,3.83
2023-01-22T08:11:52.382Z,3.87
2023-01-22T08:14:19.820Z,3.93
2023-01-22T08:16:46.821Z,4.13
2023-01-22T08:19:13.682Z,3.70
2023-01-22T08:21:40.428Z,3.97
2023-01-22T08:24:08.131Z,3.90
2023-01-22T08:26:34.907Z,3.87
2023-01-22T08:29:05.259Z,3.80
2023-01-22T08:31:33.517Z,3.83
2023-01-22T08:34:00.754Z,4.20
2023-01-22T08:36:27.547Z,3.93
2023-01-22T08:38:54.336Z,4.20
2023-01-22T08:41:21.407Z,4.50
2023-01-22T08:43:48.071Z,4.57
2023-01-22T08:46:14.736Z,4.20
2023-01-22T08:48:43.293Z,4.00
2023-01-22T08:51:10.906Z,4.43
2023-01-22T08:53:37.635Z,5.20
2023-01-22T08:56:04.536Z,5.27
2023-01-22T08:58:31.164Z,4.70
2023-01-22T09:00:57.755Z,4.67
2023-01-22T09:03:24.806Z,4.93
2023-01-22T09:05:51.557Z,4.33
2023-01-22T09:08:18.221Z,4.87
2023-01-22T09:10:44.833Z,4.87
2023-01-22T09:13:11.460Z,4.80
2023-01-22T09:15:39.550Z,4.70
2023-01-22T09:18:06.717Z,4.43
2023-01-22T09:20:33.331Z,4.80
2023-01-22T09:22:59.909Z,4.93
2023-01-22T09:25:26.453Z,4.53
2023-01-22T09:28:00.077Z,4.93
2023-01-22T09:30:29.976Z,5.20
2023-01-22T09:32:56.898Z,5.00
2023-01-22T09:35:23.995Z,4.97
2023-01-22T09:37:50.673Z,4.60
2023-01-22T09:40:28.089Z,5.40
2023-01-22T09:43:04.975Z,5.37
2023-01-22T09:45:33.673Z,5.63
2023-01-22T09:48:05.129Z,4.80
2023-01-22T09:50:34.060Z,5.07
2023-01-22T09:53:04.721Z,4.80
2023-01-22T09:55:36.627Z,5.03
2023-01-22T09:58:05.671Z,5.07
2023-01-22T10:00:41.210Z,4.90
2023-01-22T10:03:16.964Z,4.90
2023-01-22T10:05:48.891Z,7.53
2023-01-22T10:08:21.441Z,5.30
2023-01-22T10:10:48.464Z,5.40
2023-01-22T10:13:23.746Z,5.50
2023-01-22T10:15:52.842Z,5.47
2023-01-22T10:18:31.140Z,5.30
2023-01-22T10:21:02.841Z,5.90
2023-01-22T10:23:32.356Z,5.10
2023-01-22T10:26:18.996Z,5.63
2023-01-22T10:28:48.867Z,6.30
2023-01-22T10:31:26.401Z,6.23
2023-01-22T10:34:01.672Z,6.03
2023-01-22T10:36:29.641Z,6.03
2023-01-22T10:39:13.408Z,5.70
2023-01-22T10:41:41.902Z,5.87
2023-01-22T10:44:20.596Z,5.77
2023-01-22T10:46:49.588Z,5.83
2023-01-22T10:49:19.563Z,5.90
2023-01-22T10:51:52.909Z,5.70
2023-01-22T10:54:27.830Z,6.00
2023-01-22T10:57:14.793Z,6.13
2023-01-22T10:59:52.121Z,6.33
2023-01-22T11:02:23.326Z,6.00
2023-01-22T11:04:50.191Z,5.63
2023-01-22T11:07:22.588Z,6.23
2023-01-22T11:10:14.921Z,5.73
2023-01-22T11:12:45.565Z,6.00
2023-01-22T11:15:40.743Z,6.07
2023-01-22T11:18:11.145Z,6.13
2023-01-22T11:20:49.455Z,5.90
2023-01-22T11:23:48.961Z,6.30
2023-01-22T11:26:34.518Z,6.20
2023-01-22T11:29:29.543Z,6.13
2023-01-22T11:32:46.633Z,6.60
2023-01-22T11:35:44.990Z,5.70
2023-01-22T11:38:27.858Z,6.00
2023-01-22T11:41:14.735Z,6.30
2023-01-22T11:43:55.532Z,5.90
2023-01-22T11:46:56.298Z,6.10
2023-01-22T11:49:45.350Z,5.43
2023-01-22T11:52:33.032Z,6.00
2023-01-22T11:55:17.728Z,6.73
2023-01-22T11:58:19.558Z,6.80
2023-01-22T12:01:01.546Z,6.27
2023-01-22T12:04:04.167Z,5.70
2023-01-22T12:07:05.153Z,6.20
2023-01-22T12:10:10.421Z,6.00
2023-01-22T12:13:00.094Z,6.20
2023-01-22T12:16:01.284Z,5.37
2023-01-22T12:18:53.490Z,6.53
2023-01-22T12:21:58.027Z,6.13
2023-01-22T12:24:34.977Z,6.83
2023-01-22T12:27:07.011Z,6.63
2023-01-22T12:29:40.558Z,6.67
2023-01-22T12:32:10.731Z,6.53
2023-01-22T12:34:45.082Z,6.83
2023-01-22T12:37:19.935Z,7.53
2023-01-22T12:40:28.340Z,6.90
2023-01-22T12:43:03.084Z,7.63
2023-01-22T12:45:50.997Z,7.60
2023-01-22T12:48:49.015Z,7.57
2023-01-22T12:51:26.915Z,6.83
2023-01-22T12:53:53.744Z,7.30
2023-01-22T12:56:32.044Z,7.00
2023-01-22T12:59:26.605Z,6.60
2023-01-22T13:02:03.617Z,7.57
2023-01-22T13:04:32.612Z,8.27
2023-01-22T13:07:35.556Z,7.37
2023-01-22T13:10:22.411Z,7.83
2023-01-22T13:12:54.890Z,7.70
2023-01-22T13:15:28.288Z,7.17
2023-01-22T13:18:13.003Z,8.17
2023-01-22T13:20:59.470Z,7.70
2023-01-22T13:23:27.097Z,8.10
2023-01-22T13:25:55.589Z,7.90
2023-01-22T13:28:23.908Z,7.90
2023-01-22T13:31:05.607Z,8.77
2023-01-22T13:33:32.760Z,8.17
2023-01-22T13:36:10.759Z,7.93
2023-01-22T13:38:37.717Z,8.10
2023-01-22T13:41:18.188Z,8.70
2023-01-22T13:43:44.787Z,8.20
2023-01-22T13:46:14.638Z,8.90
2023-01-22T13:48:41.731Z,8.63
2023-01-22T13:51:18.230Z,9.07
2023-01-22T13:53:50.427Z,9.07
2023-01-22T13:56:20.603Z,8.77
2023-01-22T13:58:50.143Z,8.57
2023-01-22T14:01:31.945Z,7.97
2023-01-22T14:04:01.388Z,8.20
2023-01-22T14:06:28.645Z,8.50
2023-01-22T14:08:57.520Z,8.53
2023-01-22T14:11:24.318Z,8.67
2023-01-22T14:13:52.737Z,9.00
2023-01-22T14:16:19.519Z,8.73
2023-01-22T14:18:46.898Z,8.83
2023-01-22T14:21:13.616Z,8.53
2023-01-22T14:23:41.700Z,8.73
2023-01-22T14:26:09.200Z,8.53
2023-01-22T14:28:36.118Z,8.57
2023-01-22T14:31:02.967Z,8.47
2023-01-22T14:33:34.380Z,8.93
2023-01-22T14:36:01.268Z,9.10
2023-01-22T14:38:28.409Z,9.37
2023-01-22T14:40:56.034Z,10.13
2023-01-22T14:43:22.804Z,9.27
2023-01-22T14:45:49.462Z,9.77
2023-01-22T14:48:18.518Z,10.07
2023-01-22T14:50:45.835Z,9.60
2023-01-22T14:53:13.640Z,9.43
2023-01-22T14:55:42.502Z,10.13
2023-01-22T14:58:10.302Z,9.30
2023-01-22T15:00:37.460Z,10.17
2023-01-22T15:03:04.423Z,9.80
2023-01-22T15:05:32.036Z,9.87
2023-01-22T15:08:01.388Z,9.13
2023-01-22T15:10:28.255Z,10.43
2023-01-22T15:12:55.090Z,9.97
2023-01-22T15:15:26.371Z,9.80
2023-01-22T15:17:54.525Z,10.07
2023-01-22T15:20:22.230Z,10.60
2023-01-22T15:22:49.768Z,10.57
2023-01-22T15:25:16.956Z,10.30
2023-01-22T15:27:44.520Z,10.70
2023-01-22T15:30:12.791Z,9.60
2023-01-22T15:32:39.687Z,11.13
2023-01-22T15:35:06.458Z,9.80
2023-01-22T15:37:33.036Z,10.53
2023-01-22T15:39:59.770Z,9.47
2023-01-22T15:42:26.346Z,9.83
2023-01-22T15:44:52.916Z,10.77
2023-01-22T15:47:19.464Z,10.80
2023-01-22T15:49:46.025Z,10.03
2023-01-22T15:52:12.670Z,9.80
2023-01-22T15:54:39.227Z,10.17
2023-01-22T15:57:05.847Z,9.87
2023-01-22T15:59:33.141Z,9.43
2023-01-22T16:01:59.811Z,10.70
2023-01-22T16:04:26.367Z,10.27
2023-01-22T16:06:52.967Z,12.10
2023-01-22T16:09:19.545Z,10.33
2023-01-22T16:11:46.143Z,11.40
2023-01-22T16:14:12.707Z,11.07
2023-01-22T16:16:39.582Z,10.87
2023-01-22T16:19:08.216Z,10.30
2023-01-22T16:21:35.711Z,10.80
2023-01-22T16:24:03.122Z,10.37
2023-01-22T16:26:32.160Z,12.03
2023-01-22T16:29:00.503Z,10.87
2023-01-22T16:31:29.849Z,12.60
2023-01-22T16:33:58.986Z,12.10
2023-01-22T16:36:29.055Z,10.73
2023-01-22T16:38:56.092Z,10.63
2023-01-22T16:41:28.976Z,10.67
2023-01-22T16:43:59.291Z,10.67
2023-01-22T16:46:28.411Z,10.83
2023-01-22T16:48:56.898Z,11.10
2023-01-22T16:51:25.411Z,10.57
2023-01-22T16:53:52.504Z,10.37
2023-01-22T16:56:21.710Z,11.17
2023-01-22T16:58:48.373Z,11.87
2023-01-22T17:01:15.566Z,11.90
2023-01-22T17:03:42.711Z,12.43
2023-01-22T17:06:24.049Z,11.30
2023-01-22T17:08:51.907Z,11.97
2023-01-22T17:11:19.372Z,10.30
2023-01-22T17:13:46.606Z,9.60
2023-01-22T17:16:13.325Z,9.60
2023-01-22T17:18:40.097Z,10.90
2023-01-22T17:21:08.662Z,10.60
2023-01-22T17:23:35.664Z,10.93
2023-01-22T17:26:06.257Z,10.63
2023-01-22T17:28:35.449Z,9.80
2023-01-22T17:31:05.996Z,10.43
2023-01-22T17:33:32.700Z,10.40
2023-01-22T17:36:00.502Z,10.77
2023-01-22T17:38:29.011Z,10.10
2023-01-22T17:40:56.944Z,10.93
2023-01-22T17:43:24.136Z,9.93
2023-01-22T17:45:51.096Z,9.67
2023-01-22T17:48:17.755Z,10.73
2023-01-22T17:50:44.312Z,10.30
2023-01-22T17:53:11.011Z,11.03
2023-01-22T17:55:38.010Z,11.47
2023-01-22T17:58:04.560Z,10.37
2023-01-22T18:00:31.704Z,10.30
2023-01-22T18:02:58.318Z,10.10
2023-01-22T18:05:26.678Z,10.03
2023-01-22T18:07:53.226Z,9.83
2023-01-22T18:10:21.220Z,10.77
2023-01-22T18:12:49.092Z,10.67
2023-01-22T18:15:15.739Z,9.53
2023-01-22T18:17:42.311Z,9.53
2023-01-22T18:20:09.533Z,9.67
2023-01-22T18:22:36.119Z,10.23
2023-01-22T18:25:02.836Z,10.23
2023-01-22T18:27:29.394Z,10.70
2023-01-22T18:29:55.989Z,12.00
2023-01-22T18:32:24.267Z,11.63
2023-01-22T18:34:50.962Z,12.23
2023-01-22T18:37:17.520Z,12.40
2023-01-22T18:39:44.053Z,11.13
2023-01-22T18:42:10.639Z,9.47
2023-01-22T18:44:38.842Z,10.90
2023-01-22T18:47:10.965Z,10.27
2023-01-22T18:49:37.701Z,10.33
2023-01-22T18:52:04.296Z,10.27
2023-01-22T18:54:30.885Z,9.57
2023-01-22T18:56:57.552Z,9.87
2023-01-22T18:59:24.400Z,10.80
2023-01-22T19:01:51.797Z,10.07
2023-01-22T19:04:21.750Z,9.33
2023-01-22T19:06:53.129Z,9.73
2023-01-22T19:09:20.563Z,10.13
2023-01-22T19:11:48.923Z,10.10
2023-01-22T19:14:18.064Z,9.83
2023-01-22T19:16:48.176Z,10.30
2023-01-22T19:19:15.485Z,10.93
2023-01-22T19:21:46.915Z,10.40
2023-01-22T19:24:18.517Z,10.53
2023-01-22T19:26:46.804Z,9.23
2023-01-22T19:29:17.124Z,9.07
2023-01-22T19:31:46.358Z,9.47
2023-01-22T19:34:18.439Z,9.50
2023-01-22T19:36:45.024Z,10.07
2023-01-22T19:39:12.802Z,10.23
2023-01-22T19:41:40.652Z,12.03
2023-01-22T19:44:08.741Z,10.77
2023-01-22T19:46:35.798Z,9.80
2023-01-22T19:49:02.508Z,9.73
2023-01-22T19:51:30.672Z,10.27
2023-01-22T19:54:00.147Z,9.23
2023-01-22T19:56:29.717Z,10.40
2023-01-22T19:59:02.619Z,10.23
2023-01-22T20:01:29.517Z,10.07
2023-01-22T20:03:56.390Z,9.77
2023-01-22T20:06:23.896Z,9.77
2023-01-22T20:08:50.876Z,9.50
2023-01-22T20:11:17.985Z,9.33
2023-01-22T20:13:44.660Z,9.27
2023-01-22T20:16:22.691Z,9.13
2023-01-22T20:18:50.652Z,9.43
2023-01-22T20:21:19.066Z,9.23
2023-01-22T20:23:47.700Z,9.57
2023-01-22T20:26:15.380Z,9.77
2023-01-22T20:28:42.519Z,9.23
2023-01-22T20:31:14.003Z,9.03
2023-01-22T20:33:40.878Z,9.07
2023-01-22T20:36:10.612Z,9.03
2023-01-22T20:38:37.462Z,9.27
2023-01-22T20:41:09.204Z,9.37
2023-01-22T20:43:37.880Z,9.87
2023-01-22T20:46:08.223Z,9.00
2023-01-22T20:48:35.183Z,9.07
2023-01-22T20:51:01.814Z,9.33
2023-01-22T20:53:29.364Z,9.23
2023-01-22T20:56:04.830Z,8.53
2023-01-22T20:58:32.327Z,8.87
2023-01-22T21:01:08.284Z,9.00
2023-01-22T21:03:35.723Z,9.00
2023-01-22T21:06:04.680Z,9.27
2023-01-22T21:08:31.404Z,9.07
2023-01-22T21:10:59.958Z,9.60
2023-01-22T21:13:27.048Z,9.03
2023-01-22T21:15:53.697Z,9.20
2023-01-22T21:18:22.100Z,8.87
2023-01-22T21:20:50.011Z,9.77
2023-01-22T21:23:17.240Z,10.00
2023-01-22T21:25:43.883Z,9.27
2023-01-22T21:28:10.796Z,10.43
2023-01-22T21:30:37.460Z,9.47
2023-01-22T21:33:04.053Z,8.90
2023-01-22T21:35:30.719Z,9.33
2023-01-22T21:37:57.329Z,9.80
2023-01-22T21:40:23.948Z,9.97
2023-01-22T21:43:09.365Z,9.57
2023-01-22T21:45:59.437Z,9.37
2023-01-22T21:48:28.704Z,9.93
2023-01-22T21:50:55.359Z,9.30
2023-01-22T21:53:22.146Z,9.90
2023-01-22T21:55:53.247Z,9.80
2023-01-22T21:58:20.818Z,10.07
2023-01-22T22:00:47.418Z,9.70
2023-01-22T22:03:15.831Z,9.20
2023-01-22T22:05:42.700Z,9.50
2023-01-22T22:08:09.354Z,9.77
2023-01-22T22:10:35.956Z,9.33
2023-01-22T22:13:02.668Z,9.93
2023-01-22T22:15:29.248Z,9.20
2023-01-22T22:17:55.882Z,9.47
2023-01-22T22:20:22.510Z,9.37
2023-01-22T22:22:49.145Z,9.20
2023-01-22T22:25:15.819Z,8.73
2023-01-22T22:27:42.423Z,9.57
2023-01-22T22:30:09.613Z,9.60
2023-01-22T22:32:36.212Z,9.03
2023-01-22T22:35:02.797Z,10.40
2023-01-22T22:37:29.364Z,9.93
2023-01-22T22:39:55.981Z,9.43
2023-01-22T22:42:22.587Z,10.67
2023-01-22T22:44:49.161Z,9.57
2023-01-22T22:47:15.847Z,10.07
2023-01-22T22:49:42.706Z,9.40
2023-01-22T22:52:10.742Z,9.77
2023-01-22T22:54:37.324Z,9.53
2023-01-22T22:57:03.956Z,10.07
2023-01-22T22:59:30.770Z,9.63
2023-01-22T23:01:57.322Z,9.67
2023-01-22T23:04:24.111Z,9.30
2023-01-22T23:06:51.932Z,10.10
2023-01-22T23:09:20.502Z,10.37
2023-01-22T23:11:51.472Z,9.73
2023-01-22T23:14:18.130Z,11.03
2023-01-22T23:16:44.953Z,10.30
2023-01-22T23:19:23.620Z,10.80
2023-01-22T23:21:58.548Z,10.43
2023-01-22T23:24:25.758Z,10.23
2023-01-22T23:26:52.511Z,10.17
2023-01-22T23:29:22.089Z,11.00
2023-01-22T23:31:48.879Z,11.47
2023-01-22T23:34:19.491Z,10.90
2023-01-22T23:36:47.305Z,10.73
2023-01-22T23:39:16.226Z,10.63
2023-01-22T23:41:43.254Z,10.40
2023-01-22T23:44:10.178Z,10.37
2023-01-22T23:46:36.892Z,11.27
2023-01-22T23:49:05.913Z,10.93
2023-01-22T23:51:33.107Z,10.93
2023-01-22T23:53:59.756Z,10.73
2023-01-22T23:56:31.481Z,10.97
2023-01-22T23:58:58.983Z,10.70
